sensor_id;sensor_type;location;lat;lon;timestamp;temperature;humidity
24252;DHT22;12380;51.118;4.176;2023-04-15T00:00:14;10.60;99.90
24252;DHT22;12380;51.118;4.176;2023-04-15T00:02:40;10.60;99.90
24252;DHT22;12380;51.118;4.176;2023-04-15T00:05:08;10.60;99.90
24252;DHT22;12380;51.118;4.176;2023-04-15T00:07:36;10.70;99.90
24252;DHT22;12380;51.118;4.176;2023-04-15T00:10:02;10.70;99.90
24252;DHT22;12380;51.118;4.176;2023-04-15T00:12:28;10.80;99.90
24252;DHT22;12380;51.118;4.176;2023-04-15T00:14:54;10.70;99.90
24252;DHT22;12380;51.118;4.176;2023-04-15T00:17:21;10.70;99.90
24252;DHT22;12380;51.118;4.176;2023-04-15T00:19:47;10.70;99.90
24252;DHT22;12380;51.118;4.176;2023-04-15T00:22:15;11.00;99.90
24252;DHT22;12380;51.118;4.176;2023-04-15T00:24:41;11.10;99.90
24252;DHT22;12380;51.118;4.176;2023-04-15T00:27:07;11.00;99.90
24252;DHT22;12380;51.118;4.176;2023-04-15T00:29:33;10.90;99.90
24252;DHT22;12380;51.118;4.176;2023-04-15T00:31:59;10.90;99.90
24252;DHT22;12380;51.118;4.176;2023-04-15T00:34:25;10.70;99.90
24252;DHT22;12380;51.118;4.176;2023-04-15T00:36:52;10.60;99.90
24252;DHT22;12380;51.118;4.176;2023-04-15T00:39:18;10.70;99.90
24252;DHT22;12380;51.118;4.176;2023-04-15T00:41:44;10.40;99.90
24252;DHT22;12380;51.118;4.176;2023-04-15T00:44:10;10.30;99.90
24252;DHT22;12380;51.118;4.176;2023-04-15T00:46:37;10.30;99.90
24252;DHT22;12380;51.118;4.176;2023-04-15T00:49:04;10.40;99.90
24252;DHT22;12380;51.118;4.176;2023-04-15T00:51:31;10.40;99.90
24252;DHT22;12380;51.118;4.176;2023-04-15T00:54:03;10.50;99.90
24252;DHT22;12380;51.118;4.176;2023-04-15T00:56:30;10.60;99.90
24252;DHT22;12380;51.118;4.176;2023-04-15T00:58:58;10.40;99.90
24252;DHT22;12380;51.118;4.176;2023-04-15T01:01:25;10.30;99.90
24252;DHT22;12380;51.118;4.176;2023-04-15T01:03:51;10.30;99.90
24252;DHT22;12380;51.118;4.176;2023-04-15T01:06:19;10.10;99.90
24252;DHT22;12380;51.118;4.176;2023-04-15T01:08:45;10.10;99.90
24252;DHT22;12380;51.118;4.176;2023-04-15T01:11:12;10.00;99.90
24252;DHT22;12380;51.118;4.176;2023-04-15T01:13:38;9.80;99.90
24252;DHT22;12380;51.118;4.176;2023-04-15T01:16:04;10.00;99.90
24252;DHT22;12380;51.118;4.176;2023-04-15T01:18:30;10.10;99.90
24252;DHT22;12380;51.118;4.176;2023-04-15T01:21:00;10.10;99.90
24252;DHT22;12380;51.118;4.176;2023-04-15T01:23:27;10.00;99.90
24252;DHT22;12380;51.118;4.176;2023-04-15T01:25:53;10.10;99.90
24252;DHT22;12380;51.118;4.176;2023-04-15T01:28:20;10.20;99.90
24252;DHT22;12380;51.118;4.176;2023-04-15T01:30:46;10.20;99.90
24252;DHT22;12380;51.118;4.176;2023-04-15T01:33:14;10.00;99.90
24252;DHT22;12380;51.118;4.176;2023-04-15T01:35:42;10.10;99.90
24252;DHT22;12380;51.118;4.176;2023-04-15T01:38:10;10.00;99.90
24252;DHT22;12380;51.118;4.176;2023-04-15T01:40:38;9.80;99.90
24252;DHT22;12380;51.118;4.176;2023-04-15T01:43:05;9.90;99.90
24252;DHT22;12380;51.118;4.176;2023-04-15T01:45:31;9.90;99.90
24252;DHT22;12380;51.118;4.176;2023-04-15T01:47:56;10.20;99.90
24252;DHT22;12380;51.118;4.176;2023-04-15T01:50:22;10.20;99.90
24252;DHT22;12380;51.118;4.176;2023-04-15T01:52:51;10.20;99.90
24252;DHT22;12380;51.118;4.176;2023-04-15T01:55:17;10.30;99.90
24252;DHT22;12380;51.118;4.176;2023-04-15T01:57:43;10.10;99.90
24252;DHT22;12380;51.118;4.176;2023-04-15T02:00:09;10.10;99.90
24252;DHT22;12380;51.118;4.176;2023-04-15T02:02:36;10.10;99.90
24252;DHT22;12380;51.118;4.176;2023-04-15T02:05:02;10.10;99.90
24252;DHT22;12380;51.118;4.176;2023-04-15T02:07:29;10.10;99.90
24252;DHT22;12380;51.118;4.176;2023-04-15T02:09:57;10.10;99.90
24252;DHT22;12380;51.118;4.176;2023-04-15T02:12:23;10.20;99.90
24252;DHT22;12380;51.118;4.176;2023-04-15T02:14:49;10.10;99.90
24252;DHT22;12380;51.118;4.176;2023-04-15T02:17:20;10.50;99.90
24252;DHT22;12380;51.118;4.176;2023-04-15T02:19:46;10.80;99.90
24252;DHT22;12380;51.118;4.176;2023-04-15T02:22:12;10.80;99.90
24252;DHT22;12380;51.118;4.176;2023-04-15T02:24:43;10.70;99.90
24252;DHT22;12380;51.118;4.176;2023-04-15T02:27:13;10.30;99.90
24252;DHT22;12380;51.118;4.176;2023-04-15T02:29:39;10.20;99.90
24252;DHT22;12380;51.118;4.176;2023-04-15T02:32:05;10.30;99.90
24252;DHT22;12380;51.118;4.176;2023-04-15T02:34:31;10.30;99.90
24252;DHT22;12380;51.118;4.176;2023-04-15T02:36:58;10.30;99.90
24252;DHT22;12380;51.118;4.176;2023-04-15T02:39:28;10.60;99.90
24252;DHT22;12380;51.118;4.176;2023-04-15T02:41:56;10.70;99.90
24252;DHT22;12380;51.118;4.176;2023-04-15T02:44:23;10.50;99.90
24252;DHT22;12380;51.118;4.176;2023-04-15T02:46:49;10.50;99.90
24252;DHT22;12380;51.118;4.176;2023-04-15T02:49:17;10.40;99.90
24252;DHT22;12380;51.118;4.176;2023-04-15T02:51:43;10.30;99.90
24252;DHT22;12380;51.118;4.176;2023-04-15T02:54:12;10.30;99.90
24252;DHT22;12380;51.118;4.176;2023-04-15T02:56:37;10.20;99.90
24252;DHT22;12380;51.118;4.176;2023-04-15T02:59:03;10.50;99.90
24252;DHT22;12380;51.118;4.176;2023-04-15T03:01:31;10.60;99.90
24252;DHT22;12380;51.118;4.176;2023-04-15T03:03:56;10.60;99.90
24252;DHT22;12380;51.118;4.176;2023-04-15T03:06:22;10.50;99.90
24252;DHT22;12380;51.118;4.176;2023-04-15T03:08:49;10.30;99.90
24252;DHT22;12380;51.118;4.176;2023-04-15T03:11:15;10.20;99.90
24252;DHT22;12380;51.118;4.176;2023-04-15T03:13:41;10.10;99.90
24252;DHT22;12380;51.118;4.176;2023-04-15T03:16:08;10.10;99.90
24252;DHT22;12380;51.118;4.176;2023-04-15T03:18:36;10.50;99.90
24252;DHT22;12380;51.118;4.176;2023-04-15T03:21:04;10.30;99.90
24252;DHT22;12380;51.118;4.176;2023-04-15T03:23:31;10.30;99.90
24252;DHT22;12380;51.118;4.176;2023-04-15T03:25:57;10.40;99.90
24252;DHT22;12380;51.118;4.176;2023-04-15T03:28:30;10.40;99.90
24252;DHT22;12380;51.118;4.176;2023-04-15T03:30:59;10.40;99.90
24252;DHT22;12380;51.118;4.176;2023-04-15T03:33:27;10.40;99.90
24252;DHT22;12380;51.118;4.176;2023-04-15T03:35:53;10.70;99.90
24252;DHT22;12380;51.118;4.176;2023-04-15T03:38:18;10.50;99.90
24252;DHT22;12380;51.118;4.176;2023-04-15T03:40:45;10.60;99.90
24252;DHT22;12380;51.118;4.176;2023-04-15T03:43:11;10.50;99.90
24252;DHT22;12380;51.118;4.176;2023-04-15T03:45:36;10.40;99.90
24252;DHT22;12380;51.118;4.176;2023-04-15T03:48:02;10.40;99.90
24252;DHT22;12380;51.118;4.176;2023-04-15T03:50:28;10.40;99.90
24252;DHT22;12380;51.118;4.176;2023-04-15T03:52:53;10.30;99.90
24252;DHT22;12380;51.118;4.176;2023-04-15T03:55:19;10.20;99.90
24252;DHT22;12380;51.118;4.176;2023-04-15T03:57:47;10.20;99.90
24252;DHT22;12380;51.118;4.176;2023-04-15T04:00:13;10.30;99.90
24252;DHT22;12380;51.118;4.176;2023-04-15T04:02:43;10.10;99.90
24252;DHT22;12380;51.118;4.176;2023-04-15T04:05:10;10.10;99.90
24252;DHT22;12380;51.118;4.176;2023-04-15T04:07:36;10.10;99.90
24252;DHT22;12380;51.118;4.176;2023-04-15T04:10:02;10.10;99.90
24252;DHT22;12380;51.118;4.176;2023-04-15T04:12:28;10.00;99.90
24252;DHT22;12380;51.118;4.176;2023-04-15T04:14:54;10.00;99.90
24252;DHT22;12380;51.118;4.176;2023-04-15T04:17:22;10.00;99.90
24252;DHT22;12380;51.118;4.176;2023-04-15T04:19:48;10.10;99.90
24252;DHT22;12380;51.118;4.176;2023-04-15T04:22:13;9.90;99.90
24252;DHT22;12380;51.118;4.176;2023-04-15T04:24:39;9.90;99.90
24252;DHT22;12380;51.118;4.176;2023-04-15T04:27:07;10.00;99.90
24252;DHT22;12380;51.118;4.176;2023-04-15T04:29:33;10.00;99.90
24252;DHT22;12380;51.118;4.176;2023-04-15T04:32:01;10.10;99.90
24252;DHT22;12380;51.118;4.176;2023-04-15T04:34:29;10.10;99.90
24252;DHT22;12380;51.118;4.176;2023-04-15T04:36:57;10.20;99.90
24252;DHT22;12380;51.118;4.176;2023-04-15T04:39:23;10.10;99.90
24252;DHT22;12380;51.118;4.176;2023-04-15T04:41:51;10.10;99.90
24252;DHT22;12380;51.118;4.176;2023-04-15T04:44:17;10.10;99.90
24252;DHT22;12380;51.118;4.176;2023-04-15T04:46:45;10.10;99.90
24252;DHT22;12380;51.118;4.176;2023-04-15T04:49:11;9.90;99.90
24252;DHT22;12380;51.118;4.176;2023-04-15T04:51:36;9.90;99.90
24252;DHT22;12380;51.118;4.176;2023-04-15T04:54:05;9.90;99.90
24252;DHT22;12380;51.118;4.176;2023-04-15T04:56:30;9.90;99.90
24252;DHT22;12380;51.118;4.176;2023-04-15T04:58:56;9.90;99.90
24252;DHT22;12380;51.118;4.176;2023-04-15T05:01:22;9.90;99.90
24252;DHT22;12380;51.118;4.176;2023-04-15T05:03:47;9.70;99.90
24252;DHT22;12380;51.118;4.176;2023-04-15T05:06:16;9.50;99.90
24252;DHT22;12380;51.118;4.176;2023-04-15T05:08:41;9.40;99.90
24252;DHT22;12380;51.118;4.176;2023-04-15T05:11:07;9.50;99.90
24252;DHT22;12380;51.118;4.176;2023-04-15T05:13:33;9.60;99.90
24252;DHT22;12380;51.118;4.176;2023-04-15T05:16:03;9.60;99.90
24252;DHT22;12380;51.118;4.176;2023-04-15T05:18:29;9.60;99.90
24252;DHT22;12380;51.118;4.176;2023-04-15T05:20:57;9.60;99.90
24252;DHT22;12380;51.118;4.176;2023-04-15T05:23:23;9.60;99.90
24252;DHT22;12380;51.118;4.176;2023-04-15T05:25:49;9.50;99.90
24252;DHT22;12380;51.118;4.176;2023-04-15T05:28:17;9.40;99.90
24252;DHT22;12380;51.118;4.176;2023-04-15T05:30:43;9.40;99.90
24252;DHT22;12380;51.118;4.176;2023-04-15T05:33:09;9.50;99.90
24252;DHT22;12380;51.118;4.176;2023-04-15T05:35:35;9.50;99.90
24252;DHT22;12380;51.118;4.176;2023-04-15T05:38:01;9.60;99.90
24252;DHT22;12380;51.118;4.176;2023-04-15T05:40:26;9.50;99.90
24252;DHT22;12380;51.118;4.176;2023-04-15T05:42:52;9.70;99.90
24252;DHT22;12380;51.118;4.176;2023-04-15T05:45:18;9.70;99.90
24252;DHT22;12380;51.118;4.176;2023-04-15T05:47:43;10.10;99.90
24252;DHT22;12380;51.118;4.176;2023-04-15T05:50:09;10.20;99.90
24252;DHT22;12380;51.118;4.176;2023-04-15T05:52:38;10.00;99.90
24252;DHT22;12380;51.118;4.176;2023-04-15T05:55:04;10.10;99.90
24252;DHT22;12380;51.118;4.176;2023-04-15T05:57:30;10.30;99.90
24252;DHT22;12380;51.118;4.176;2023-04-15T05:59:56;10.20;99.90
24252;DHT22;12380;51.118;4.176;2023-04-15T06:02:24;10.40;99.90
24252;DHT22;12380;51.118;4.176;2023-04-15T06:04:50;10.40;99.90
24252;DHT22;12380;51.118;4.176;2023-04-15T06:07:19;10.20;99.90
24252;DHT22;12380;51.118;4.176;2023-04-15T06:09:44;10.40;99.90
24252;DHT22;12380;51.118;4.176;2023-04-15T06:12:13;10.40;99.90
24252;DHT22;12380;51.118;4.176;2023-04-15T06:14:38;10.70;99.90
24252;DHT22;12380;51.118;4.176;2023-04-15T06:17:05;10.70;99.90
24252;DHT22;12380;51.118;4.176;2023-04-15T06:19:34;10.60;99.90
24252;DHT22;12380;51.118;4.176;2023-04-15T06:22:01;10.60;99.90
24252;DHT22;12380;51.118;4.176;2023-04-15T06:24:30;10.80;99.90
24252;DHT22;12380;51.118;4.176;2023-04-15T06:26:58;11.10;99.90
24252;DHT22;12380;51.118;4.176;2023-04-15T06:29:23;10.80;99.90
24252;DHT22;12380;51.118;4.176;2023-04-15T06:31:50;10.80;99.90
24252;DHT22;12380;51.118;4.176;2023-04-15T06:34:16;11.30;99.90
24252;DHT22;12380;51.118;4.176;2023-04-15T06:36:41;11.50;99.90
24252;DHT22;12380;51.118;4.176;2023-04-15T06:39:09;11.80;99.90
24252;DHT22;12380;51.118;4.176;2023-04-15T06:41:35;12.10;99.90
24252;DHT22;12380;51.118;4.176;2023-04-15T06:44:01;12.40;99.90
24252;DHT22;12380;51.118;4.176;2023-04-15T06:46:29;12.70;99.90
24252;DHT22;12380;51.118;4.176;2023-04-15T06:48:55;12.70;99.90
24252;DHT22;12380;51.118;4.176;2023-04-15T06:51:21;12.50;99.90
24252;DHT22;12380;51.118;4.176;2023-04-15T06:53:48;12.30;99.90
24252;DHT22;12380;51.118;4.176;2023-04-15T06:56:14;12.70;99.90
24252;DHT22;12380;51.118;4.176;2023-04-15T06:58:42;12.50;99.90
24252;DHT22;12380;51.118;4.176;2023-04-15T07:01:11;12.70;99.90
24252;DHT22;12380;51.118;4.176;2023-04-15T07:03:37;12.50;99.90
24252;DHT22;12380;51.118;4.176;2023-04-15T07:06:02;12.80;99.90
24252;DHT22;12380;51.118;4.176;2023-04-15T07:08:31;12.80;99.90
24252;DHT22;12380;51.118;4.176;2023-04-15T07:10:57;13.20;99.90
24252;DHT22;12380;51.118;4.176;2023-04-15T07:13:22;13.30;99.90
24252;DHT22;12380;51.118;4.176;2023-04-15T07:15:48;13.80;99.90
24252;DHT22;12380;51.118;4.176;2023-04-15T07:18:16;13.90;99.90
24252;DHT22;12380;51.118;4.176;2023-04-15T07:20:44;14.50;99.90
24252;DHT22;12380;51.118;4.176;2023-04-15T07:23:09;14.70;99.90
24252;DHT22;12380;51.118;4.176;2023-04-15T07:25:35;14.50;99.90
24252;DHT22;12380;51.118;4.176;2023-04-15T07:28:01;14.70;99.90
24252;DHT22;12380;51.118;4.176;2023-04-15T07:30:27;15.40;99.90
24252;DHT22;12380;51.118;4.176;2023-04-15T07:32:56;15.80;99.90
24252;DHT22;12380;51.118;4.176;2023-04-15T07:35:23;16.20;99.90
24252;DHT22;12380;51.118;4.176;2023-04-15T07:37:52;16.00;99.90
24252;DHT22;12380;51.118;4.176;2023-04-15T07:40:18;15.90;99.90
24252;DHT22;12380;51.118;4.176;2023-04-15T07:42:46;16.10;99.90
24252;DHT22;12380;51.118;4.176;2023-04-15T07:45:14;16.20;99.90
24252;DHT22;12380;51.118;4.176;2023-04-15T07:47:42;16.00;99.90
24252;DHT22;12380;51.118;4.176;2023-04-15T07:50:09;16.10;99.90
24252;DHT22;12380;51.118;4.176;2023-04-15T07:52:35;16.90;99.90
24252;DHT22;12380;51.118;4.176;2023-04-15T07:55:06;16.90;99.90
24252;DHT22;12380;51.118;4.176;2023-04-15T07:57:33;17.50;99.90
24252;DHT22;12380;51.118;4.176;2023-04-15T08:00:00;17.80;99.90
24252;DHT22;12380;51.118;4.176;2023-04-15T08:02:30;18.10;99.90
24252;DHT22;12380;51.118;4.176;2023-04-15T08:04:59;18.60;99.90
24252;DHT22;12380;51.118;4.176;2023-04-15T08:07:27;18.80;99.90
24252;DHT22;12380;51.118;4.176;2023-04-15T08:09:57;18.70;99.90
24252;DHT22;12380;51.118;4.176;2023-04-15T08:12:23;19.10;99.90
24252;DHT22;12380;51.118;4.176;2023-04-15T08:14:49;18.90;99.90
24252;DHT22;12380;51.118;4.176;2023-04-15T08:17:15;19.00;99.90
24252;DHT22;12380;51.118;4.176;2023-04-15T08:19:41;18.50;99.90
24252;DHT22;12380;51.118;4.176;2023-04-15T08:22:07;18.40;99.90
24252;DHT22;12380;51.118;4.176;2023-04-15T08:24:33;18.50;99.90
24252;DHT22;12380;51.118;4.176;2023-04-15T08:26:59;18.90;99.90
24252;DHT22;12380;51.118;4.176;2023-04-15T08:29:28;19.10;99.90
24252;DHT22;12380;51.118;4.176;2023-04-15T08:31:54;19.80;99.90
24252;DHT22;12380;51.118;4.176;2023-04-15T08:34:20;20.20;99.90
24252;DHT22;12380;51.118;4.176;2023-04-15T08:36:48;20.40;99.90
24252;DHT22;12380;51.118;4.176;2023-04-15T08:39:13;20.20;99.90
24252;DHT22;12380;51.118;4.176;2023-04-15T08:41:45;19.90;99.90
24252;DHT22;12380;51.118;4.176;2023-04-15T08:44:17;19.90;99.90
24252;DHT22;12380;51.118;4.176;2023-04-15T08:46:43;20.30;99.90
24252;DHT22;12380;51.118;4.176;2023-04-15T08:49:12;20.90;99.90
24252;DHT22;12380;51.118;4.176;2023-04-15T08:51:39;21.00;99.90
24252;DHT22;12380;51.118;4.176;2023-04-15T08:54:05;21.10;99.90
24252;DHT22;12380;51.118;4.176;2023-04-15T08:56:34;21.80;99.90
24252;DHT22;12380;51.118;4.176;2023-04-15T08:59:01;21.10;99.90
24252;DHT22;12380;51.118;4.176;2023-04-15T09:01:28;21.00;99.90
24252;DHT22;12380;51.118;4.176;2023-04-15T09:03:55;20.90;99.90
24252;DHT22;12380;51.118;4.176;2023-04-15T09:06:24;21.10;99.90
24252;DHT22;12380;51.118;4.176;2023-04-15T09:08:51;21.30;99.90
24252;DHT22;12380;51.118;4.176;2023-04-15T09:11:20;21.00;99.90
24252;DHT22;12380;51.118;4.176;2023-04-15T09:13:46;20.80;99.90
24252;DHT22;12380;51.118;4.176;2023-04-15T09:16:12;20.70;99.90
24252;DHT22;12380;51.118;4.176;2023-04-15T09:18:42;20.30;99.90
24252;DHT22;12380;51.118;4.176;2023-04-15T09:21:11;20.30;99.90
24252;DHT22;12380;51.118;4.176;2023-04-15T09:24:00;20.50;99.90
24252;DHT22;12380;51.118;4.176;2023-04-15T09:26:36;21.30;99.70
24252;DHT22;12380;51.118;4.176;2023-04-15T09:29:06;21.80;99.90
24252;DHT22;12380;51.118;4.176;2023-04-15T09:31:32;21.70;98.00
24252;DHT22;12380;51.118;4.176;2023-04-15T09:34:00;21.60;98.60
24252;DHT22;12380;51.118;4.176;2023-04-15T09:36:26;21.50;97.10
24252;DHT22;12380;51.118;4.176;2023-04-15T09:38:56;20.80;99.60
24252;DHT22;12380;51.118;4.176;2023-04-15T09:41:22;21.00;99.90
24252;DHT22;12380;51.118;4.176;2023-04-15T09:43:49;21.00;99.10
24252;DHT22;12380;51.118;4.176;2023-04-15T09:46:15;21.50;99.90
24252;DHT22;12380;51.118;4.176;2023-04-15T09:48:40;21.70;98.40
24252;DHT22;12380;51.118;4.176;2023-04-15T09:51:06;21.90;98.30
24252;DHT22;12380;51.118;4.176;2023-04-15T09:53:34;21.70;97.40
24252;DHT22;12380;51.118;4.176;2023-04-15T09:56:01;21.30;99.40
24252;DHT22;12380;51.118;4.176;2023-04-15T09:58:29;21.50;99.80
24252;DHT22;12380;51.118;4.176;2023-04-15T10:00:57;21.60;98.50
24252;DHT22;12380;51.118;4.176;2023-04-15T10:03:25;21.90;98.70
24252;DHT22;12380;51.118;4.176;2023-04-15T10:05:53;22.00;97.50
24252;DHT22;12380;51.118;4.176;2023-04-15T10:08:22;22.30;97.60
24252;DHT22;12380;51.118;4.176;2023-04-15T10:10:50;22.10;98.30
24252;DHT22;12380;51.118;4.176;2023-04-15T10:13:20;22.60;96.50
24252;DHT22;12380;51.118;4.176;2023-04-15T10:15:59;22.80;95.40
24252;DHT22;12380;51.118;4.176;2023-04-15T10:18:26;22.50;96.10
24252;DHT22;12380;51.118;4.176;2023-04-15T10:20:53;22.60;95.50
24252;DHT22;12380;51.118;4.176;2023-04-15T10:23:21;22.50;92.10
24252;DHT22;12380;51.118;4.176;2023-04-15T10:25:52;21.90;95.20
24252;DHT22;12380;51.118;4.176;2023-04-15T10:28:20;21.70;92.90
24252;DHT22;12380;51.118;4.176;2023-04-15T10:30:49;22.00;93.10
24252;DHT22;12380;51.118;4.176;2023-04-15T10:33:16;21.90;95.20
24252;DHT22;12380;51.118;4.176;2023-04-15T10:35:45;21.80;94.10
24252;DHT22;12380;51.118;4.176;2023-04-15T10:38:39;21.60;91.60
24252;DHT22;12380;51.118;4.176;2023-04-15T10:41:26;21.40;93.00
24252;DHT22;12380;51.118;4.176;2023-04-15T10:46:44;21.90;94.20
24252;DHT22;12380;51.118;4.176;2023-04-15T10:49:11;22.10;90.30
24252;DHT22;12380;51.118;4.176;2023-04-15T10:51:39;22.50;80.50
24252;DHT22;12380;51.118;4.176;2023-04-15T10:54:16;22.70;80.80
24252;DHT22;12380;51.118;4.176;2023-04-15T10:59:31;22.90;83.30
24252;DHT22;12380;51.118;4.176;2023-04-15T11:02:00;22.80;87.60
24252;DHT22;12380;51.118;4.176;2023-04-15T11:04:55;22.90;88.50
24252;DHT22;12380;51.118;4.176;2023-04-15T11:12:39;23.20;71.40
24252;DHT22;12380;51.118;4.176;2023-04-15T11:15:40;23.30;73.30
24252;DHT22;12380;51.118;4.176;2023-04-15T11:18:10;22.90;77.60
24252;DHT22;12380;51.118;4.176;2023-04-15T11:20:41;22.50;73.10
24252;DHT22;12380;51.118;4.176;2023-04-15T11:23:09;22.40;76.50
24252;DHT22;12380;51.118;4.176;2023-04-15T11:25:35;23.00;77.10
24252;DHT22;12380;51.118;4.176;2023-04-15T11:28:04;23.10;77.30
24252;DHT22;12380;51.118;4.176;2023-04-15T11:30:36;23.10;75.50
24252;DHT22;12380;51.118;4.176;2023-04-15T11:33:07;23.20;74.30
24252;DHT22;12380;51.118;4.176;2023-04-15T11:35:36;23.30;68.70
24252;DHT22;12380;51.118;4.176;2023-04-15T11:38:08;23.10;68.60
24252;DHT22;12380;51.118;4.176;2023-04-15T11:40:34;22.60;65.30
24252;DHT22;12380;51.118;4.176;2023-04-15T11:43:20;23.10;62.10
24252;DHT22;12380;51.118;4.176;2023-04-15T11:45:53;23.70;71.70
24252;DHT22;12380;51.118;4.176;2023-04-15T11:48:20;23.70;66.60
24252;DHT22;12380;51.118;4.176;2023-04-15T11:50:58;24.30;70.00
24252;DHT22;12380;51.118;4.176;2023-04-15T11:53:35;24.20;65.80
24252;DHT22;12380;51.118;4.176;2023-04-15T11:56:03;24.50;76.40
24252;DHT22;12380;51.118;4.176;2023-04-15T11:58:34;24.30;72.40
24252;DHT22;12380;51.118;4.176;2023-04-15T12:01:02;24.20;66.00
24252;DHT22;12380;51.118;4.176;2023-04-15T12:03:30;23.80;68.80
24252;DHT22;12380;51.118;4.176;2023-04-15T12:06:22;23.60;65.70
24252;DHT22;12380;51.118;4.176;2023-04-15T12:09:12;23.60;66.00
24252;DHT22;12380;51.118;4.176;2023-04-15T12:11:55;23.50;65.30
24252;DHT22;12380;51.118;4.176;2023-04-15T12:14:31;23.70;65.30
24252;DHT22;12380;51.118;4.176;2023-04-15T12:16:59;23.80;64.30
24252;DHT22;12380;51.118;4.176;2023-04-15T12:19:45;23.80;67.80
24252;DHT22;12380;51.118;4.176;2023-04-15T12:22:13;23.70;66.00
24252;DHT22;12380;51.118;4.176;2023-04-15T12:24:41;23.50;73.20
24252;DHT22;12380;51.118;4.176;2023-04-15T12:27:12;23.50;67.40
24252;DHT22;12380;51.118;4.176;2023-04-15T12:29:39;23.80;64.50
24252;DHT22;12380;51.118;4.176;2023-04-15T12:32:11;24.20;66.90
24252;DHT22;12380;51.118;4.176;2023-04-15T12:34:43;24.00;67.30
24252;DHT22;12380;51.118;4.176;2023-04-15T12:37:10;24.00;69.60
24252;DHT22;12380;51.118;4.176;2023-04-15T12:39:38;23.20;63.10
24252;DHT22;12380;51.118;4.176;2023-04-15T12:42:09;22.70;71.00
24252;DHT22;12380;51.118;4.176;2023-04-15T12:44:37;22.40;65.20
24252;DHT22;12380;51.118;4.176;2023-04-15T12:47:03;22.10;64.60
24252;DHT22;12380;51.118;4.176;2023-04-15T12:49:30;22.50;66.50
24252;DHT22;12380;51.118;4.176;2023-04-15T12:51:58;22.60;65.40
24252;DHT22;12380;51.118;4.176;2023-04-15T12:54:27;23.30;66.20
24252;DHT22;12380;51.118;4.176;2023-04-15T12:56:53;23.30;64.40
24252;DHT22;12380;51.118;4.176;2023-04-15T12:59:19;23.20;66.40
24252;DHT22;12380;51.118;4.176;2023-04-15T13:01:46;23.30;69.70
24252;DHT22;12380;51.118;4.176;2023-04-15T13:04:13;23.80;73.00
24252;DHT22;12380;51.118;4.176;2023-04-15T13:06:41;23.70;65.30
24252;DHT22;12380;51.118;4.176;2023-04-15T13:09:10;23.30;67.10
24252;DHT22;12380;51.118;4.176;2023-04-15T13:11:37;22.90;68.70
24252;DHT22;12380;51.118;4.176;2023-04-15T13:14:05;22.60;66.60
24252;DHT22;12380;51.118;4.176;2023-04-15T13:16:32;22.60;63.00
24252;DHT22;12380;51.118;4.176;2023-04-15T13:18:59;22.80;62.90
24252;DHT22;12380;51.118;4.176;2023-04-15T13:21:24;22.70;65.50
24252;DHT22;12380;51.118;4.176;2023-04-15T13:23:51;22.60;73.80
24252;DHT22;12380;51.118;4.176;2023-04-15T13:26:17;22.40;68.40
24252;DHT22;12380;51.118;4.176;2023-04-15T13:28:43;22.40;67.20
24252;DHT22;12380;51.118;4.176;2023-04-15T13:31:09;21.90;64.70
24252;DHT22;12380;51.118;4.176;2023-04-15T13:33:35;21.30;60.70
24252;DHT22;12380;51.118;4.176;2023-04-15T13:36:01;21.30;64.50
24252;DHT22;12380;51.118;4.176;2023-04-15T13:38:26;21.40;67.70
24252;DHT22;12380;51.118;4.176;2023-04-15T13:40:52;21.50;65.60
24252;DHT22;12380;51.118;4.176;2023-04-15T13:43:18;21.90;67.30
24252;DHT22;12380;51.118;4.176;2023-04-15T13:45:45;21.90;68.90
24252;DHT22;12380;51.118;4.176;2023-04-15T13:48:11;21.60;69.00
24252;DHT22;12380;51.118;4.176;2023-04-15T13:50:36;21.40;68.50
24252;DHT22;12380;51.118;4.176;2023-04-15T13:53:02;21.50;72.10
24252;DHT22;12380;51.118;4.176;2023-04-15T13:55:28;21.50;68.70
24252;DHT22;12380;51.118;4.176;2023-04-15T13:57:56;21.50;67.60
24252;DHT22;12380;51.118;4.176;2023-04-15T14:00:24;21.70;73.10
24252;DHT22;12380;51.118;4.176;2023-04-15T14:02:50;21.50;75.00
24252;DHT22;12380;51.118;4.176;2023-04-15T14:05:15;21.30;78.20
24252;DHT22;12380;51.118;4.176;2023-04-15T14:07:43;21.40;73.20
24252;DHT22;12380;51.118;4.176;2023-04-15T14:10:09;21.50;73.70
24252;DHT22;12380;51.118;4.176;2023-04-15T14:12:38;21.40;75.90
24252;DHT22;12380;51.118;4.176;2023-04-15T14:15:04;21.50;80.80
24252;DHT22;12380;51.118;4.176;2023-04-15T14:17:34;21.80;81.90
24252;DHT22;12380;51.118;4.176;2023-04-15T14:20:00;21.90;80.10
24252;DHT22;12380;51.118;4.176;2023-04-15T14:22:28;21.40;90.60
24252;DHT22;12380;51.118;4.176;2023-04-15T14:24:54;20.70;90.20
24252;DHT22;12380;51.118;4.176;2023-04-15T14:27:20;20.30;91.20
24252;DHT22;12380;51.118;4.176;2023-04-15T14:29:46;20.10;94.00
24252;DHT22;12380;51.118;4.176;2023-04-15T14:32:16;20.30;98.90
24252;DHT22;12380;51.118;4.176;2023-04-15T14:34:42;20.40;97.20
24252;DHT22;12380;51.118;4.176;2023-04-15T14:37:08;19.80;98.70
24252;DHT22;12380;51.118;4.176;2023-04-15T14:39:33;19.80;99.50
24252;DHT22;12380;51.118;4.176;2023-04-15T14:41:59;19.50;99.90
24252;DHT22;12380;51.118;4.176;2023-04-15T14:44:27;19.20;99.90
24252;DHT22;12380;51.118;4.176;2023-04-15T14:46:52;19.50;99.90
24252;DHT22;12380;51.118;4.176;2023-04-15T14:49:20;19.60;99.90
24252;DHT22;12380;51.118;4.176;2023-04-15T14:51:47;19.50;99.90
24252;DHT22;12380;51.118;4.176;2023-04-15T14:54:13;19.70;99.90
24252;DHT22;12380;51.118;4.176;2023-04-15T14:56:39;19.70;99.90
24252;DHT22;12380;51.118;4.176;2023-04-15T14:59:05;19.20;99.90
24252;DHT22;12380;51.118;4.176;2023-04-15T15:01:32;18.90;99.90
24252;DHT22;12380;51.118;4.176;2023-04-15T15:03:58;18.60;99.90
24252;DHT22;12380;51.118;4.176;2023-04-15T15:06:26;18.70;99.90
24252;DHT22;12380;51.118;4.176;2023-04-15T15:08:52;19.10;99.90
24252;DHT22;12380;51.118;4.176;2023-04-15T15:11:20;19.10;99.90
24252;DHT22;12380;51.118;4.176;2023-04-15T15:13:46;19.10;99.90
24252;DHT22;12380;51.118;4.176;2023-04-15T15:16:11;19.10;99.90
24252;DHT22;12380;51.118;4.176;2023-04-15T15:18:37;18.80;99.90
24252;DHT22;12380;51.118;4.176;2023-04-15T15:21:03;18.80;99.90
24252;DHT22;12380;51.118;4.176;2023-04-15T15:23:28;18.90;99.90
24252;DHT22;12380;51.118;4.176;2023-04-15T15:25:54;18.80;99.90
24252;DHT22;12380;51.118;4.176;2023-04-15T15:28:20;18.10;99.90
24252;DHT22;12380;51.118;4.176;2023-04-15T15:30:47;18.10;99.90
24252;DHT22;12380;51.118;4.176;2023-04-15T15:33:13;18.40;99.90
24252;DHT22;12380;51.118;4.176;2023-04-15T15:35:39;18.20;99.90
24252;DHT22;12380;51.118;4.176;2023-04-15T15:38:06;18.40;99.90
24252;DHT22;12380;51.118;4.176;2023-04-15T15:40:32;18.00;99.90
24252;DHT22;12380;51.118;4.176;2023-04-15T15:43:00;18.20;99.90
24252;DHT22;12380;51.118;4.176;2023-04-15T15:45:26;18.10;99.90